sensor_id;sensor_type;location;lat;lon;timestamp;P1;durP1;ratioP1;P2;durP2;ratioP2
27857;SDS011;16852;51.446;6.528;2023-02-04T00:01:53;27.27;;;4.85;;
27857;SDS011;16852;51.446;6.528;2023-02-04T00:03:54;23.27;;;4.60;;
27857;SDS011;16852;51.446;6.528;2023-02-04T00:05:54;26.45;;;4.47;;
27857;SDS011;16852;51.446;6.528;2023-02-04T00:07:55;23.83;;;4.55;;
27857;SDS011;16852;51.446;6.528;2023-02-04T00:09:55;16.50;;;3.63;;
27857;SDS011;16852;51.446;6.528;2023-02-04T00:11:56;20.67;;;4.45;;
27857;SDS011;16852;51.446;6.528;2023-02-04T00:13:57;19.05;;;4.05;;
27857;SDS011;16852;51.446;6.528;2023-02-04T00:15:57;11.25;;;3.30;;
27857;SDS011;16852;51.446;6.528;2023-02-04T00:17:58;24.05;;;4.55;;
27857;SDS011;16852;51.446;6.528;2023-02-04T00:19:58;14.50;;;3.58;;
27857;SDS011;16852;51.446;6.528;2023-02-04T00:21:59;17.40;;;4.28;;
27857;SDS011;16852;51.446;6.528;2023-02-04T00:24:00;22.77;;;4.30;;
27857;SDS011;16852;51.446;6.528;2023-02-04T00:26:01;26.13;;;4.60;;
27857;SDS011;16852;51.446;6.528;2023-02-04T00:28:01;18.52;;;3.80;;
27857;SDS011;16852;51.446;6.528;2023-02-04T00:30:03;21.27;;;4.53;;
27857;SDS011;16852;51.446;6.528;2023-02-04T00:32:05;20.30;;;4.57;;
27857;SDS011;16852;51.446;6.528;2023-02-04T00:34:05;15.63;;;3.95;;
27857;SDS011;16852;51.446;6.528;2023-02-04T00:36:06;23.83;;;5.22;;
27857;SDS011;16852;51.446;6.528;2023-02-04T00:38:06;27.52;;;4.55;;
27857;SDS011;16852;51.446;6.528;2023-02-04T00:40:07;23.83;;;4.78;;
27857;SDS011;16852;51.446;6.528;2023-02-04T00:42:08;20.40;;;4.30;;
27857;SDS011;16852;51.446;6.528;2023-02-04T00:44:09;13.73;;;3.35;;
27857;SDS011;16852;51.446;6.528;2023-02-04T00:46:10;27.25;;;5.10;;
27857;SDS011;16852;51.446;6.528;2023-02-04T00:48:11;18.02;;;3.60;;
27857;SDS011;16852;51.446;6.528;2023-02-04T00:50:11;18.23;;;3.60;;
27857;SDS011;16852;51.446;6.528;2023-02-04T00:52:12;19.05;;;3.80;;
27857;SDS011;16852;51.446;6.528;2023-02-04T00:54:13;16.65;;;3.75;;
27857;SDS011;16852;51.446;6.528;2023-02-04T00:56:14;14.93;;;3.60;;
27857;SDS011;16852;51.446;6.528;2023-02-04T00:58:15;20.00;;;4.70;;
27857;SDS011;16852;51.446;6.528;2023-02-04T01:00:16;29.98;;;5.68;;
27857;SDS011;16852;51.446;6.528;2023-02-04T01:02:17;26.05;;;5.65;;
27857;SDS011;16852;51.446;6.528;2023-02-04T01:04:17;17.15;;;4.07;;
27857;SDS011;16852;51.446;6.528;2023-02-04T01:06:18;27.00;;;4.72;;
27857;SDS011;16852;51.446;6.528;2023-02-04T01:08:18;25.42;;;4.95;;
27857;SDS011;16852;51.446;6.528;2023-02-04T01:10:19;25.90;;;5.07;;
27857;SDS011;16852;51.446;6.528;2023-02-04T01:12:20;22.95;;;4.72;;
27857;SDS011;16852;51.446;6.528;2023-02-04T01:14:21;20.55;;;3.67;;
27857;SDS011;16852;51.446;6.528;2023-02-04T01:16:22;22.88;;;4.28;;
27857;SDS011;16852;51.446;6.528;2023-02-04T01:18:23;23.02;;;4.95;;
27857;SDS011;16852;51.446;6.528;2023-02-04T01:20:23;29.92;;;5.35;;
27857;SDS011;16852;51.446;6.528;2023-02-04T01:22:24;21.98;;;4.07;;
27857;SDS011;16852;51.446;6.528;2023-02-04T01:24:25;17.92;;;3.90;;
27857;SDS011;16852;51.446;6.528;2023-02-04T01:26:25;23.27;;;5.18;;
27857;SDS011;16852;51.446;6.528;2023-02-04T01:28:26;24.08;;;3.90;;
27857;SDS011;16852;51.446;6.528;2023-02-04T01:30:26;18.40;;;3.90;;
27857;SDS011;16852;51.446;6.528;2023-02-04T01:32:27;16.27;;;3.45;;
27857;SDS011;16852;51.446;6.528;2023-02-04T01:34:27;27.13;;;4.68;;
27857;SDS011;16852;51.446;6.528;2023-02-04T01:38:30;23.52;;;4.00;;
27857;SDS011;16852;51.446;6.528;2023-02-04T01:40:31;20.77;;;4.05;;
27857;SDS011;16852;51.446;6.528;2023-02-04T01:42:32;20.40;;;3.72;;
27857;SDS011;16852;51.446;6.528;2023-02-04T01:44:32;17.70;;;3.38;;
27857;SDS011;16852;51.446;6.528;2023-02-04T01:46:33;17.33;;;3.65;;
27857;SDS011;16852;51.446;6.528;2023-02-04T01:48:36;26.23;;;4.53;;
27857;SDS011;16852;51.446;6.528;2023-02-04T01:50:37;16.83;;;4.20;;
27857;SDS011;16852;51.446;6.528;2023-02-04T01:52:38;11.75;;;3.13;;
27857;SDS011;16852;51.446;6.528;2023-02-04T01:54:39;14.13;;;3.13;;
27857;SDS011;16852;51.446;6.528;2023-02-04T01:56:41;15.30;;;3.17;;
27857;SDS011;16852;51.446;6.528;2023-02-04T01:58:45;19.63;;;4.50;;
27857;SDS011;16852;51.446;6.528;2023-02-04T02:00:46;15.07;;;3.30;;
27857;SDS011;16852;51.446;6.528;2023-02-04T02:02:47;17.60;;;3.83;;
27857;SDS011;16852;51.446;6.528;2023-02-04T02:04:50;19.52;;;4.13;;
27857;SDS011;16852;51.446;6.528;2023-02-04T02:06:51;14.80;;;3.10;;
27857;SDS011;16852;51.446;6.528;2023-02-04T02:08:54;18.98;;;3.80;;
27857;SDS011;16852;51.446;6.528;2023-02-04T02:10:55;23.42;;;4.10;;
27857;SDS011;16852;51.446;6.528;2023-02-04T02:12:55;23.48;;;3.90;;
27857;SDS011;16852;51.446;6.528;2023-02-04T02:14:56;24.20;;;4.20;;
27857;SDS011;16852;51.446;6.528;2023-02-04T02:16:58;19.23;;;4.00;;
27857;SDS011;16852;51.446;6.528;2023-02-04T02:18:58;15.90;;;3.22;;
27857;SDS011;16852;51.446;6.528;2023-02-04T02:20:59;19.02;;;4.93;;
27857;SDS011;16852;51.446;6.528;2023-02-04T02:25:13;18.63;;;3.80;;
27857;SDS011;16852;51.446;6.528;2023-02-04T02:27:14;14.95;;;3.92;;
27857;SDS011;16852;51.446;6.528;2023-02-04T02:29:15;20.13;;;3.80;;
27857;SDS011;16852;51.446;6.528;2023-02-04T02:31:16;15.55;;;3.25;;
27857;SDS011;16852;51.446;6.528;2023-02-04T02:33:19;13.73;;;3.70;;
27857;SDS011;16852;51.446;6.528;2023-02-04T02:35:20;15.27;;;3.65;;
27857;SDS011;16852;51.446;6.528;2023-02-04T02:37:21;18.75;;;3.60;;
27857;SDS011;16852;51.446;6.528;2023-02-04T02:39:21;16.20;;;3.35;;
27857;SDS011;16852;51.446;6.528;2023-02-04T02:41:22;12.02;;;3.50;;
27857;SDS011;16852;51.446;6.528;2023-02-04T02:43:24;22.50;;;4.00;;
27857;SDS011;16852;51.446;6.528;2023-02-04T02:45:27;17.50;;;3.47;;
27857;SDS011;16852;51.446;6.528;2023-02-04T02:49:30;17.95;;;3.40;;
27857;SDS011;16852;51.446;6.528;2023-02-04T02:51:32;20.00;;;4.15;;
27857;SDS011;16852;51.446;6.528;2023-02-04T02:53:32;20.40;;;4.15;;
27857;SDS011;16852;51.446;6.528;2023-02-04T02:55:33;13.38;;;3.20;;
27857;SDS011;16852;51.446;6.528;2023-02-04T02:57:34;15.02;;;3.55;;
27857;SDS011;16852;51.446;6.528;2023-02-04T02:59:34;10.18;;;2.70;;
27857;SDS011;16852;51.446;6.528;2023-02-04T03:01:35;17.65;;;4.20;;
27857;SDS011;16852;51.446;6.528;2023-02-04T03:03:37;19.75;;;4.47;;
27857;SDS011;16852;51.446;6.528;2023-02-04T03:05:45;11.68;;;2.92;;
27857;SDS011;16852;51.446;6.528;2023-02-04T03:09:47;19.40;;;3.35;;
27857;SDS011;16852;51.446;6.528;2023-02-04T03:11:48;13.98;;;3.13;;
27857;SDS011;16852;51.446;6.528;2023-02-04T03:13:49;18.70;;;3.88;;
27857;SDS011;16852;51.446;6.528;2023-02-04T03:15:50;13.88;;;3.42;;
27857;SDS011;16852;51.446;6.528;2023-02-04T03:17:51;22.60;;;3.72;;
27857;SDS011;16852;51.446;6.528;2023-02-04T03:19:55;16.27;;;3.90;;
27857;SDS011;16852;51.446;6.528;2023-02-04T03:21:56;21.17;;;3.88;;
27857;SDS011;16852;51.446;6.528;2023-02-04T03:23:57;25.23;;;4.55;;
27857;SDS011;16852;51.446;6.528;2023-02-04T03:25:58;19.33;;;3.63;;
27857;SDS011;16852;51.446;6.528;2023-02-04T03:27:59;19.23;;;3.53;;
27857;SDS011;16852;51.446;6.528;2023-02-04T03:30:00;14.55;;;3.38;;
27857;SDS011;16852;51.446;6.528;2023-02-04T03:32:00;16.77;;;3.92;;
27857;SDS011;16852;51.446;6.528;2023-02-04T03:34:05;22.08;;;3.55;;
27857;SDS011;16852;51.446;6.528;2023-02-04T03:36:06;15.20;;;3.45;;
27857;SDS011;16852;51.446;6.528;2023-02-04T03:38:08;21.83;;;3.65;;
27857;SDS011;16852;51.446;6.528;2023-02-04T03:40:08;16.88;;;3.63;;
27857;SDS011;16852;51.446;6.528;2023-02-04T03:42:10;23.48;;;4.28;;
27857;SDS011;16852;51.446;6.528;2023-02-04T03:44:10;17.00;;;3.50;;
27857;SDS011;16852;51.446;6.528;2023-02-04T03:46:11;17.85;;;4.25;;
27857;SDS011;16852;51.446;6.528;2023-02-04T03:48:12;12.45;;;2.90;;
27857;SDS011;16852;51.446;6.528;2023-02-04T03:50:12;25.70;;;4.72;;
27857;SDS011;16852;51.446;6.528;2023-02-04T03:52:13;19.20;;;4.20;;
27857;SDS011;16852;51.446;6.528;2023-02-04T03:54:14;25.77;;;4.05;;
27857;SDS011;16852;51.446;6.528;2023-02-04T03:56:14;19.00;;;3.80;;
27857;SDS011;16852;51.446;6.528;2023-02-04T03:58:15;22.45;;;4.20;;
27857;SDS011;16852;51.446;6.528;2023-02-04T04:00:16;14.63;;;3.13;;
27857;SDS011;16852;51.446;6.528;2023-02-04T04:02:17;29.52;;;4.20;;
27857;SDS011;16852;51.446;6.528;2023-02-04T04:04:17;17.42;;;3.90;;
27857;SDS011;16852;51.446;6.528;2023-02-04T04:06:18;11.35;;;3.10;;
27857;SDS011;16852;51.446;6.528;2023-02-04T04:08:19;22.92;;;4.40;;
27857;SDS011;16852;51.446;6.528;2023-02-04T04:10:20;15.05;;;3.85;;
27857;SDS011;16852;51.446;6.528;2023-02-04T04:12:20;16.42;;;3.47;;
27857;SDS011;16852;51.446;6.528;2023-02-04T04:14:21;21.42;;;4.25;;
27857;SDS011;16852;51.446;6.528;2023-02-04T04:16:21;12.30;;;3.22;;
27857;SDS011;16852;51.446;6.528;2023-02-04T04:18:22;22.27;;;4.28;;
27857;SDS011;16852;51.446;6.528;2023-02-04T04:20:22;18.15;;;3.58;;
27857;SDS011;16852;51.446;6.528;2023-02-04T04:22:27;15.50;;;3.25;;
27857;SDS011;16852;51.446;6.528;2023-02-04T04:24:27;17.58;;;3.50;;
27857;SDS011;16852;51.446;6.528;2023-02-04T04:26:28;23.63;;;3.53;;
27857;SDS011;16852;51.446;6.528;2023-02-04T04:28:28;19.83;;;3.55;;
27857;SDS011;16852;51.446;6.528;2023-02-04T04:30:29;14.20;;;2.97;;
27857;SDS011;16852;51.446;6.528;2023-02-04T04:32:29;16.95;;;3.58;;
27857;SDS011;16852;51.446;6.528;2023-02-04T04:34:30;17.38;;;3.38;;
27857;SDS011;16852;51.446;6.528;2023-02-04T04:36:31;13.00;;;3.75;;
27857;SDS011;16852;51.446;6.528;2023-02-04T04:38:31;32.05;;;5.25;;
27857;SDS011;16852;51.446;6.528;2023-02-04T04:40:32;19.92;;;4.38;;
27857;SDS011;16852;51.446;6.528;2023-02-04T04:42:32;15.75;;;4.55;;
27857;SDS011;16852;51.446;6.528;2023-02-04T04:44:33;15.73;;;3.70;;
27857;SDS011;16852;51.446;6.528;2023-02-04T04:46:33;20.38;;;4.07;;
27857;SDS011;16852;51.446;6.528;2023-02-04T04:48:34;19.85;;;3.90;;
27857;SDS011;16852;51.446;6.528;2023-02-04T04:50:34;17.92;;;3.33;;
27857;SDS011;16852;51.446;6.528;2023-02-04T04:52:35;26.30;;;4.68;;
27857;SDS011;16852;51.446;6.528;2023-02-04T04:54:36;13.85;;;3.47;;
27857;SDS011;16852;51.446;6.528;2023-02-04T04:56:36;16.23;;;3.70;;
27857;SDS011;16852;51.446;6.528;2023-02-04T04:58:37;17.17;;;4.10;;
27857;SDS011;16852;51.446;6.528;2023-02-04T05:00:37;14.68;;;3.78;;
27857;SDS011;16852;51.446;6.528;2023-02-04T05:02:38;16.20;;;3.33;;
27857;SDS011;16852;51.446;6.528;2023-02-04T05:04:38;17.60;;;3.50;;
27857;SDS011;16852;51.446;6.528;2023-02-04T05:06:39;18.60;;;3.42;;
27857;SDS011;16852;51.446;6.528;2023-02-04T05:08:40;22.88;;;4.30;;
27857;SDS011;16852;51.446;6.528;2023-02-04T05:10:40;15.35;;;3.92;;
27857;SDS011;16852;51.446;6.528;2023-02-04T05:12:42;21.63;;;4.60;;
27857;SDS011;16852;51.446;6.528;2023-02-04T05:14:42;14.27;;;3.63;;
27857;SDS011;16852;51.446;6.528;2023-02-04T05:16:43;20.08;;;4.43;;
27857;SDS011;16852;51.446;6.528;2023-02-04T05:18:43;23.15;;;4.50;;
27857;SDS011;16852;51.446;6.528;2023-02-04T05:20:44;20.75;;;4.22;;
27857;SDS011;16852;51.446;6.528;2023-02-04T05:22:45;15.05;;;3.83;;
27857;SDS011;16852;51.446;6.528;2023-02-04T05:24:45;15.15;;;3.40;;
27857;SDS011;16852;51.446;6.528;2023-02-04T05:26:46;14.35;;;3.58;;
27857;SDS011;16852;51.446;6.528;2023-02-04T05:28:47;22.55;;;4.00;;
27857;SDS011;16852;51.446;6.528;2023-02-04T05:30:47;14.00;;;3.92;;
27857;SDS011;16852;51.446;6.528;2023-02-04T05:32:48;18.95;;;3.83;;
27857;SDS011;16852;51.446;6.528;2023-02-04T05:34:48;19.02;;;4.22;;
27857;SDS011;16852;51.446;6.528;2023-02-04T05:36:49;15.30;;;3.60;;
27857;SDS011;16852;51.446;6.528;2023-02-04T05:38:49;12.38;;;3.15;;
27857;SDS011;16852;51.446;6.528;2023-02-04T05:40:50;11.38;;;3.28;;
27857;SDS011;16852;51.446;6.528;2023-02-04T05:42:51;14.32;;;3.60;;
27857;SDS011;16852;51.446;6.528;2023-02-04T05:44:51;19.80;;;4.35;;
27857;SDS011;16852;51.446;6.528;2023-02-04T05:46:52;20.42;;;3.58;;
27857;SDS011;16852;51.446;6.528;2023-02-04T05:48:52;13.77;;;3.42;;
27857;SDS011;16852;51.446;6.528;2023-02-04T05:50:53;14.55;;;3.05;;
27857;SDS011;16852;51.446;6.528;2023-02-04T05:52:53;15.98;;;3.35;;
27857;SDS011;16852;51.446;6.528;2023-02-04T05:54:55;16.85;;;3.90;;
27857;SDS011;16852;51.446;6.528;2023-02-04T05:56:55;16.75;;;2.88;;
27857;SDS011;16852;51.446;6.528;2023-02-04T05:58:56;14.43;;;3.85;;
27857;SDS011;16852;51.446;6.528;2023-02-04T06:00:57;14.95;;;3.60;;
27857;SDS011;16852;51.446;6.528;2023-02-04T06:03:01;13.88;;;3.28;;
27857;SDS011;16852;51.446;6.528;2023-02-04T06:05:01;12.68;;;3.13;;
27857;SDS011;16852;51.446;6.528;2023-02-04T06:07:02;14.75;;;3.78;;
27857;SDS011;16852;51.446;6.528;2023-02-04T06:09:03;17.65;;;3.53;;
27857;SDS011;16852;51.446;6.528;2023-02-04T06:11:03;12.00;;;3.15;;
27857;SDS011;16852;51.446;6.528;2023-02-04T06:13:04;12.43;;;3.55;;
27857;SDS011;16852;51.446;6.528;2023-02-04T06:15:05;25.17;;;4.55;;
27857;SDS011;16852;51.446;6.528;2023-02-04T06:17:06;16.33;;;3.58;;
27857;SDS011;16852;51.446;6.528;2023-02-04T06:19:07;17.80;;;4.25;;
27857;SDS011;16852;51.446;6.528;2023-02-04T06:21:07;14.50;;;3.53;;
27857;SDS011;16852;51.446;6.528;2023-02-04T06:23:08;13.98;;;3.60;;
27857;SDS011;16852;51.446;6.528;2023-02-04T06:25:08;12.27;;;2.85;;
27857;SDS011;16852;51.446;6.528;2023-02-04T06:27:09;20.58;;;4.22;;
27857;SDS011;16852;51.446;6.528;2023-02-04T06:29:09;22.27;;;4.75;;
27857;SDS011;16852;51.446;6.528;2023-02-04T06:31:10;16.23;;;4.00;;
27857;SDS011;16852;51.446;6.528;2023-02-04T06:33:11;12.00;;;3.20;;
27857;SDS011;16852;51.446;6.528;2023-02-04T06:35:11;11.68;;;2.97;;
27857;SDS011;16852;51.446;6.528;2023-02-04T06:37:14;14.50;;;2.95;;
27857;SDS011;16852;51.446;6.528;2023-02-04T06:39:16;11.20;;;2.80;;
27857;SDS011;16852;51.446;6.528;2023-02-04T06:41:17;16.50;;;3.35;;
27857;SDS011;16852;51.446;6.528;2023-02-04T06:43:17;12.45;;;3.30;;
27857;SDS011;16852;51.446;6.528;2023-02-04T06:45:19;11.60;;;2.97;;
27857;SDS011;16852;51.446;6.528;2023-02-04T06:47:19;18.30;;;3.65;;
27857;SDS011;16852;51.446;6.528;2023-02-04T06:49:20;12.30;;;3.53;;
27857;SDS011;16852;51.446;6.528;2023-02-04T06:51:21;10.98;;;2.95;;
27857;SDS011;16852;51.446;6.528;2023-02-04T06:53:21;17.67;;;4.35;;
27857;SDS011;16852;51.446;6.528;2023-02-04T06:55:22;8.27;;;2.63;;
27857;SDS011;16852;51.446;6.528;2023-02-04T06:57:22;16.75;;;3.28;;
27857;SDS011;16852;51.446;6.528;2023-02-04T06:59:23;18.77;;;3.80;;
27857;SDS011;16852;51.446;6.528;2023-02-04T07:01:26;23.45;;;4.65;;
27857;SDS011;16852;51.446;6.528;2023-02-04T07:03:27;9.45;;;3.13;;
27857;SDS011;16852;51.446;6.528;2023-02-04T07:05:27;14.20;;;3.55;;
27857;SDS011;16852;51.446;6.528;2023-02-04T07:07:28;14.02;;;3.65;;
27857;SDS011;16852;51.446;6.528;2023-02-04T07:09:29;12.18;;;3.63;;
27857;SDS011;16852;51.446;6.528;2023-02-04T07:11:29;16.02;;;4.05;;
27857;SDS011;16852;51.446;6.528;2023-02-04T07:13:30;16.08;;;3.83;;
27857;SDS011;16852;51.446;6.528;2023-02-04T07:15:30;14.68;;;3.60;;
27857;SDS011;16852;51.446;6.528;2023-02-04T07:17:31;12.40;;;3.25;;
27857;SDS011;16852;51.446;6.528;2023-02-04T07:19:31;13.80;;;3.58;;
27857;SDS011;16852;51.446;6.528;2023-02-04T07:21:32;14.68;;;4.25;;
27857;SDS011;16852;51.446;6.528;2023-02-04T07:23:33;18.83;;;3.92;;
27857;SDS011;16852;51.446;6.528;2023-02-04T07:25:33;17.52;;;3.83;;
27857;SDS011;16852;51.446;6.528;2023-02-04T07:27:34;14.68;;;3.25;;
27857;SDS011;16852;51.446;6.528;2023-02-04T07:29:35;16.33;;;3.88;;
27857;SDS011;16852;51.446;6.528;2023-02-04T07:31:35;12.82;;;3.55;;
27857;SDS011;16852;51.446;6.528;2023-02-04T07:33:36;12.77;;;3.20;;
27857;SDS011;16852;51.446;6.528;2023-02-04T07:35:36;12.15;;;3.75;;
27857;SDS011;16852;51.446;6.528;2023-02-04T07:37:37;12.05;;;3.88;;
27857;SDS011;16852;51.446;6.528;2023-02-04T07:39:38;15.25;;;3.75;;
27857;SDS011;16852;51.446;6.528;2023-02-04T07:41:38;22.88;;;4.18;;
27857;SDS011;16852;51.446;6.528;2023-02-04T07:43:39;16.02;;;3.83;;
27857;SDS011;16852;51.446;6.528;2023-02-04T07:45:39;17.80;;;4.28;;
27857;SDS011;16852;51.446;6.528;2023-02-04T07:47:40;22.05;;;4.50;;
27857;SDS011;16852;51.446;6.528;2023-02-04T07:49:40;16.40;;;4.82;;
27857;SDS011;16852;51.446;6.528;2023-02-04T07:51:41;23.25;;;5.35;;
27857;SDS011;16852;51.446;6.528;2023-02-04T07:53:41;19.67;;;4.40;;
27857;SDS011;16852;51.446;6.528;2023-02-04T07:55:42;16.95;;;4.18;;
27857;SDS011;16852;51.446;6.528;2023-02-04T07:57:43;13.90;;;3.90;;
27857;SDS011;16852;51.446;6.528;2023-02-04T07:59:44;13.20;;;3.67;;
27857;SDS011;16852;51.446;6.528;2023-02-04T08:01:44;18.60;;;4.15;;
27857;SDS011;16852;51.446;6.528;2023-02-04T08:03:46;15.43;;;4.47;;
27857;SDS011;16852;51.446;6.528;2023-02-04T08:05:47;16.15;;;3.95;;
27857;SDS011;16852;51.446;6.528;2023-02-04T08:07:47;12.15;;;4.13;;
27857;SDS011;16852;51.446;6.528;2023-02-04T08:09:48;15.65;;;3.97;;
27857;SDS011;16852;51.446;6.528;2023-02-04T08:11:49;21.38;;;4.30;;
27857;SDS011;16852;51.446;6.528;2023-02-04T08:13:49;16.60;;;4.40;;
27857;SDS011;16852;51.446;6.528;2023-02-04T08:15:50;17.48;;;4.28;;
27857;SDS011;16852;51.446;6.528;2023-02-04T08:17:50;15.80;;;4.40;;
27857;SDS011;16852;51.446;6.528;2023-02-04T08:19:51;16.15;;;4.28;;
27857;SDS011;16852;51.446;6.528;2023-02-04T08:21:52;23.27;;;4.75;;
27857;SDS011;16852;51.446;6.528;2023-02-04T08:23:53;14.55;;;3.88;;
27857;SDS011;16852;51.446;6.528;2023-02-04T08:25:53;13.98;;;3.92;;
27857;SDS011;16852;51.446;6.528;2023-02-04T08:27:54;16.77;;;4.47;;
27857;SDS011;16852;51.446;6.528;2023-02-04T08:29:54;19.73;;;4.25;;
27857;SDS011;16852;51.446;6.528;2023-02-04T08:31:55;17.80;;;4.63;;
27857;SDS011;16852;51.446;6.528;2023-02-04T08:33:55;17.40;;;4.07;;
27857;SDS011;16852;51.446;6.528;2023-02-04T08:35:56;16.45;;;5.03;;
27857;SDS011;16852;51.446;6.528;2023-02-04T08:37:57;18.65;;;5.35;;
27857;SDS011;16852;51.446;6.528;2023-02-04T08:39:57;10.75;;;3.60;;
27857;SDS011;16852;51.446;6.528;2023-02-04T08:41:58;18.52;;;4.10;;
27857;SDS011;16852;51.446;6.528;2023-02-04T08:43:58;12.32;;;3.65;;
27857;SDS011;16852;51.446;6.528;2023-02-04T08:45:59;13.60;;;3.67;;
27857;SDS011;16852;51.446;6.528;2023-02-04T08:47:59;19.75;;;5.20;;
27857;SDS011;16852;51.446;6.528;2023-02-04T08:50:00;16.15;;;4.13;;
27857;SDS011;16852;51.446;6.528;2023-02-04T08:52:01;18.92;;;4.63;;
27857;SDS011;16852;51.446;6.528;2023-02-04T08:54:03;20.25;;;5.03;;
27857;SDS011;16852;51.446;6.528;2023-02-04T08:56:04;16.50;;;3.95;;
27857;SDS011;16852;51.446;6.528;2023-02-04T08:58:04;26.85;;;5.10;;
27857;SDS011;16852;51.446;6.528;2023-02-04T09:00:05;21.65;;;4.78;;
27857;SDS011;16852;51.446;6.528;2023-02-04T09:02:08;21.63;;;5.10;;
27857;SDS011;16852;51.446;6.528;2023-02-04T09:04:09;17.35;;;5.00;;
27857;SDS011;16852;51.446;6.528;2023-02-04T09:06:09;22.92;;;5.60;;
27857;SDS011;16852;51.446;6.528;2023-02-04T09:08:10;30.75;;;6.45;;
27857;SDS011;16852;51.446;6.528;2023-02-04T09:10:11;23.77;;;5.53;;
27857;SDS011;16852;51.446;6.528;2023-02-04T09:12:11;25.55;;;5.55;;
27857;SDS011;16852;51.446;6.528;2023-02-04T09:14:12;22.48;;;5.25;;
27857;SDS011;16852;51.446;6.528;2023-02-04T09:16:12;20.30;;;4.85;;
27857;SDS011;16852;51.446;6.528;2023-02-04T09:18:13;21.38;;;5.32;;
27857;SDS011;16852;51.446;6.528;2023-02-04T09:22:16;18.25;;;5.13;;
27857;SDS011;16852;51.446;6.528;2023-02-04T09:24:17;25.52;;;6.90;;
27857;SDS011;16852;51.446;6.528;2023-02-04T09:26:18;19.48;;;5.05;;
27857;SDS011;16852;51.446;6.528;2023-02-04T09:28:18;29.80;;;6.72;;
27857;SDS011;16852;51.446;6.528;2023-02-04T09:30:19;32.67;;;7.20;;
27857;SDS011;16852;51.446;6.528;2023-02-04T09:32:20;16.48;;;4.50;;
27857;SDS011;16852;51.446;6.528;2023-02-04T09:34:20;33.60;;;10.93;;
27857;SDS011;16852;51.446;6.528;2023-02-04T09:36:21;31.17;;;8.75;;
27857;SDS011;16852;51.446;6.528;2023-02-04T09:38:22;22.27;;;6.32;;
27857;SDS011;16852;51.446;6.528;2023-02-04T09:40:22;23.40;;;5.78;;
27857;SDS011;16852;51.446;6.528;2023-02-04T09:42:26;22.23;;;5.60;;
27857;SDS011;16852;51.446;6.528;2023-02-04T09:44:28;24.90;;;6.03;;
27857;SDS011;16852;51.446;6.528;2023-02-04T09:46:29;24.27;;;5.82;;
27857;SDS011;16852;51.446;6.528;2023-02-04T09:48:30;31.57;;;8.37;;
27857;SDS011;16852;51.446;6.528;2023-02-04T09:50:31;28.40;;;6.32;;
27857;SDS011;16852;51.446;6.528;2023-02-04T09:52:32;24.98;;;6.90;;
27857;SDS011;16852;51.446;6.528;2023-02-04T09:54:33;21.98;;;6.05;;
27857;SDS011;16852;51.446;6.528;2023-02-04T09:56:33;26.90;;;6.07;;
27857;SDS011;16852;51.446;6.528;2023-02-04T09:58:34;19.98;;;5.72;;
27857;SDS011;16852;51.446;6.528;2023-02-04T10:00:35;18.08;;;6.40;;
27857;SDS011;16852;51.446;6.528;2023-02-04T10:02:35;25.52;;;6.72;;
27857;SDS011;16852;51.446;6.528;2023-02-04T10:04:36;28.55;;;6.47;;
27857;SDS011;16852;51.446;6.528;2023-02-04T10:06:37;25.23;;;7.03;;
27857;SDS011;16852;51.446;6.528;2023-02-04T10:08:39;23.38;;;6.68;;
27857;SDS011;16852;51.446;6.528;2023-02-04T10:10:40;34.10;;;8.32;;
27857;SDS011;16852;51.446;6.528;2023-02-04T10:12:41;25.15;;;6.93;;
27857;SDS011;16852;51.446;6.528;2023-02-04T10:14:43;36.05;;;8.25;;
27857;SDS011;16852;51.446;6.528;2023-02-04T10:16:45;32.05;;;7.88;;
27857;SDS011;16852;51.446;6.528;2023-02-04T10:18:51;31.35;;;7.10;;
27857;SDS011;16852;51.446;6.528;2023-02-04T10:20:54;23.00;;;6.47;;
27857;SDS011;16852;51.446;6.528;2023-02-04T10:23:13;21.60;;;5.80;;
27857;SDS011;16852;51.446;6.528;2023-02-04T10:25:15;27.77;;;6.80;;
27857;SDS011;16852;51.446;6.528;2023-02-04T10:27:18;25.67;;;6.43;;
27857;SDS011;16852;51.446;6.528;2023-02-04T10:29:20;21.15;;;6.32;;
27857;SDS011;16852;51.446;6.528;2023-02-04T10:31:38;27.88;;;6.75;;
27857;SDS011;16852;51.446;6.528;2023-02-04T10:33:40;26.10;;;6.78;;
27857;SDS011;16852;51.446;6.528;2023-02-04T10:35:45;21.52;;;5.25;;
27857;SDS011;16852;51.446;6.528;2023-02-04T10:37:47;17.80;;;5.03;;
27857;SDS011;16852;51.446;6.528;2023-02-04T10:40:01;23.90;;;6.47;;
27857;SDS011;16852;51.446;6.528;2023-02-04T10:42:01;25.40;;;6.57;;
27857;SDS011;16852;51.446;6.528;2023-02-04T10:44:06;19.52;;;6.03;;
27857;SDS011;16852;51.446;6.528;2023-02-04T10:46:09;20.20;;;5.53;;
27857;SDS011;16852;51.446;6.528;2023-02-04T10:48:14;18.20;;;5.78;;
27857;SDS011;16852;51.446;6.528;2023-02-04T10:50:17;15.40;;;5.25;;
27857;SDS011;16852;51.446;6.528;2023-02-04T10:52:20;17.17;;;5.30;;
27857;SDS011;16852;51.446;6.528;2023-02-04T10:54:26;15.55;;;5.32;;
27857;SDS011;16852;51.446;6.528;2023-02-04T10:56:32;23.65;;;5.35;;
27857;SDS011;16852;51.446;6.528;2023-02-04T10:58:33;20.85;;;5.60;;
27857;SDS011;16852;51.446;6.528;2023-02-04T11:00:34;22.27;;;5.88;;
27857;SDS011;16852;51.446;6.528;2023-02-04T11:04:38;16.15;;;4.60;;
27857;SDS011;16852;51.446;6.528;2023-02-04T11:06:38;11.65;;;4.32;;
27857;SDS011;16852;51.446;6.528;2023-02-04T11:08:39;16.73;;;5.25;;
27857;SDS011;16852;51.446;6.528;2023-02-04T11:10:40;18.60;;;5.28;;
27857;SDS011;16852;51.446;6.528;2023-02-04T11:12:42;17.38;;;4.97;;
27857;SDS011;16852;51.446;6.528;2023-02-04T11:14:53;19.13;;;5.55;;
27857;SDS011;16852;51.446;6.528;2023-02-04T11:16:57;18.55;;;5.47;;
27857;SDS011;16852;51.446;6.528;2023-02-04T11:19:02;16.80;;;4.63;;
27857;SDS011;16852;51.446;6.528;2023-02-04T11:21:04;14.02;;;4.80;;
27857;SDS011;16852;51.446;6.528;2023-02-04T11:23:31;14.50;;;5.40;;
27857;SDS011;16852;51.446;6.528;2023-02-04T11:25:34;21.77;;;5.47;;
27857;SDS011;16852;51.446;6.528;2023-02-04T11:27:38;19.88;;;5.25;;
27857;SDS011;16852;51.446;6.528;2023-02-04T11:29:39;21.30;;;5.80;;
27857;SDS011;16852;51.446;6.528;2023-02-04T11:33:48;21.58;;;5.88;;
27857;SDS011;16852;51.446;6.528;2023-02-04T11:36:02;21.25;;;5.47;;
27857;SDS011;16852;51.446;6.528;2023-02-04T11:38:21;21.52;;;5.43;;
27857;SDS011;16852;51.446;6.528;2023-02-04T11:40:30;18.13;;;4.93;;
27857;SDS011;16852;51.446;6.528;2023-02-04T11:42:40;20.48;;;5.43;;
27857;SDS011;16852;51.446;6.528;2023-02-04T11:44:41;21.20;;;6.25;;
27857;SDS011;16852;51.446;6.528;2023-02-04T11:46:50;23.95;;;5.45;;
27857;SDS011;16852;51.446;6.528;2023-02-04T11:48:55;23.10;;;5.75;;
27857;SDS011;16852;51.446;6.528;2023-02-04T11:50:58;17.40;;;4.82;;
27857;SDS011;16852;51.446;6.528;2023-02-04T11:53:01;18.88;;;5.03;;
27857;SDS011;16852;51.446;6.528;2023-02-04T11:55:02;23.48;;;5.10;;
27857;SDS011;16852;51.446;6.528;2023-02-04T11:57:03;14.15;;;4.43;;
27857;SDS011;16852;51.446;6.528;2023-02-04T11:59:04;17.98;;;5.00;;
27857;SDS011;16852;51.446;6.528;2023-02-04T12:01:04;20.38;;;5.40;;
27857;SDS011;16852;51.446;6.528;2023-02-04T12:03:21;16.42;;;4.70;;
27857;SDS011;16852;51.446;6.528;2023-02-04T12:05:43;27.60;;;5.75;;
27857;SDS011;16852;51.446;6.528;2023-02-04T12:07:46;20.33;;;5.32;;
27857;SDS011;16852;51.446;6.528;2023-02-04T12:09:47;14.75;;;4.57;;
27857;SDS011;16852;51.446;6.528;2023-02-04T12:11:52;16.45;;;4.38;;
27857;SDS011;16852;51.446;6.528;2023-02-04T12:13:54;25.85;;;5.97;;
27857;SDS011;16852;51.446;6.528;2023-02-04T12:16:01;17.45;;;4.68;;